createdAt,value
2023-02-18T00:00:07.488Z,7.56
2023-02-18T00:01:07.499Z,7.56
2023-02-18T00:02:07.526Z,7.54
2023-02-18T00:03:07.492Z,7.63
2023-02-18T00:04:07.483Z,7.56
2023-02-18T00:05:07.433Z,7.60
2023-02-18T00:06:07.797Z,7.53
2023-02-18T00:07:07.404Z,7.47
2023-02-18T00:08:07.438Z,7.57
2023-02-18T00:09:07.379Z,7.50
2023-02-18T00:10:07.449Z,7.51
2023-02-18T00:11:07.360Z,7.47
2023-02-18T00:12:07.348Z,7.48
2023-02-18T00:13:07.338Z,7.40
2023-02-18T00:14:07.331Z,7.36
2023-02-18T00:15:07.326Z,7.33
2023-02-18T00:16:07.734Z,7.33
2023-02-18T00:17:07.318Z,7.25
2023-02-18T00:18:07.292Z,7.29
2023-02-18T00:19:07.304Z,7.32
2023-02-18T00:20:07.253Z,7.28
2023-02-18T00:21:07.264Z,7.18
2023-02-18T00:22:07.277Z,7.23
2023-02-18T00:23:07.255Z,7.23
2023-02-18T00:24:07.217Z,7.17
2023-02-18T00:25:07.205Z,7.18
2023-02-18T00:26:07.558Z,7.21
2023-02-18T00:27:07.198Z,7.13
2023-02-18T00:28:07.239Z,7.10
2023-02-18T00:29:07.160Z,7.10
2023-02-18T00:30:07.310Z,7.11
2023-02-18T00:31:07.208Z,7.07
2023-02-18T00:32:07.170Z,7.06
2023-02-18T00:33:07.135Z,7.10
2023-02-18T00:34:07.172Z,7.05
2023-02-18T00:35:07.127Z,7.06
2023-02-18T00:36:07.410Z,7.06
2023-02-18T00:37:07.088Z,7.13
2023-02-18T00:38:07.060Z,7.00
2023-02-18T00:39:07.058Z,7.11
2023-02-18T00:40:07.218Z,7.00
2023-02-18T00:41:07.058Z,7.06
2023-02-18T00:42:07.014Z,7.14
2023-02-18T00:43:06.999Z,7.11
2023-02-18T00:44:07.035Z,7.10
2023-02-18T00:45:06.975Z,7.11
2023-02-18T00:46:07.405Z,7.13
2023-02-18T00:47:06.967Z,7.17
2023-02-18T00:48:06.952Z,7.11
2023-02-18T00:49:06.940Z,7.18
2023-02-18T00:50:06.921Z,7.15
2023-02-18T00:51:07.019Z,7.25
2023-02-18T00:52:06.941Z,7.28
2023-02-18T00:53:06.893Z,7.35
2023-02-18T00:54:06.885Z,7.33
2023-02-18T00:55:06.869Z,7.32
2023-02-18T00:56:07.366Z,7.23
2023-02-18T00:57:06.860Z,7.32
2023-02-18T00:58:06.852Z,7.32
2023-02-18T00:59:06.832Z,7.38
2023-02-18T01:00:06.823Z,7.47
2023-02-18T01:01:07.698Z,7.45
2023-02-18T01:02:06.797Z,7.43
2023-02-18T01:03:06.777Z,7.39
2023-02-18T01:04:06.802Z,7.43
2023-02-18T01:05:06.760Z,7.38
2023-02-18T01:06:07.100Z,7.48
2023-02-18T01:07:06.781Z,7.47
2023-02-18T01:08:06.726Z,7.47
2023-02-18T01:09:06.720Z,7.48
2023-02-18T01:10:06.738Z,7.42
2023-02-18T01:11:06.710Z,7.38
2023-02-18T01:12:06.741Z,7.35
2023-02-18T01:13:06.701Z,7.36
2023-02-18T01:14:06.661Z,7.38
2023-02-18T01:15:06.653Z,7.25
2023-02-18T01:16:07.121Z,7.28
2023-02-18T01:17:06.624Z,7.24
2023-02-18T01:18:06.617Z,7.15
2023-02-18T01:19:06.619Z,7.15
2023-02-18T01:20:06.596Z,7.24
2023-02-18T01:21:06.587Z,7.20
2023-02-18T01:22:06.617Z,7.14
2023-02-18T01:23:06.589Z,7.14
2023-02-18T01:24:06.585Z,7.10
2023-02-18T01:25:06.541Z,7.07
2023-02-18T01:26:07.120Z,6.99
2023-02-18T01:27:06.518Z,7.07
2023-02-18T01:28:06.544Z,6.96
2023-02-18T01:29:06.515Z,7.00
2023-02-18T01:30:06.533Z,6.97
2023-02-18T01:31:06.638Z,6.97
2023-02-18T01:32:06.712Z,7.02
2023-02-18T01:33:06.453Z,6.92
2023-02-18T01:34:06.479Z,6.89
2023-02-18T01:35:06.438Z,6.88
2023-02-18T01:36:06.838Z,6.93
2023-02-18T01:37:06.411Z,6.93
2023-02-18T01:38:06.391Z,6.89
2023-02-18T01:39:06.409Z,6.95
2023-02-18T01:40:06.483Z,6.93
2023-02-18T01:41:06.368Z,6.96
2023-02-18T01:42:06.360Z,6.88
2023-02-18T01:43:06.342Z,6.89
2023-02-18T01:44:06.325Z,6.95
2023-02-18T01:45:06.320Z,6.96
2023-02-18T01:46:06.807Z,6.96
2023-02-18T01:47:06.294Z,7.02
2023-02-18T01:48:06.279Z,7.00
2023-02-18T01:49:06.271Z,6.97
2023-02-18T01:50:06.253Z,7.02
2023-02-18T01:51:06.245Z,6.95
2023-02-18T01:52:06.271Z,6.96
2023-02-18T01:53:06.221Z,6.92
2023-02-18T01:54:06.216Z,7.05
2023-02-18T01:55:06.237Z,6.95
2023-02-18T01:56:06.461Z,7.00
2023-02-18T01:57:06.195Z,7.03
2023-02-18T01:58:06.192Z,7.05
2023-02-18T01:59:06.175Z,6.93
2023-02-18T02:00:06.145Z,7.05
2023-02-18T02:01:06.216Z,7.02
2023-02-18T02:02:06.199Z,6.99
2023-02-18T02:03:06.115Z,7.03
2023-02-18T02:04:06.124Z,6.89
2023-02-18T02:05:06.094Z,6.96
2023-02-18T02:06:06.466Z,6.87
2023-02-18T02:07:06.068Z,6.97
2023-02-18T02:08:06.059Z,6.88
2023-02-18T02:09:06.044Z,6.82
2023-02-18T02:10:06.050Z,6.89
2023-02-18T02:11:06.044Z,6.89
2023-02-18T02:12:06.043Z,6.97
2023-02-18T02:13:06.007Z,6.96
2023-02-18T02:14:05.992Z,6.99
2023-02-18T02:15:05.989Z,6.99
2023-02-18T02:16:06.340Z,6.99
2023-02-18T02:17:05.953Z,6.99
2023-02-18T02:18:05.984Z,7.02
2023-02-18T02:19:05.933Z,6.97
2023-02-18T02:20:05.969Z,7.02
2023-02-18T02:21:05.909Z,6.93
2023-02-18T02:22:05.914Z,7.06
2023-02-18T02:23:05.897Z,6.99
2023-02-18T02:24:05.878Z,7.00
2023-02-18T02:25:05.879Z,7.06
2023-02-18T02:26:06.270Z,6.99
2023-02-18T02:27:06.986Z,7.05
2023-02-18T02:28:05.976Z,6.99
2023-02-18T02:29:05.837Z,6.97
2023-02-18T02:30:05.904Z,6.96
2023-02-18T02:31:05.866Z,6.99
2023-02-18T02:32:05.803Z,6.96
2023-02-18T02:33:05.779Z,7.05
2023-02-18T02:34:05.892Z,6.97
2023-02-18T02:35:05.757Z,6.89
2023-02-18T02:36:05.990Z,6.89
2023-02-18T02:37:05.746Z,6.87
2023-02-18T02:38:05.744Z,6.87
2023-02-18T02:39:05.713Z,6.82
2023-02-18T02:40:05.736Z,6.84
2023-02-18T02:41:05.695Z,6.89
2023-02-18T02:42:05.682Z,6.85
2023-02-18T02:43:05.690Z,6.84
2023-02-18T02:44:05.673Z,6.82
2023-02-18T02:45:05.642Z,6.81
2023-02-18T02:46:05.921Z,6.84
2023-02-18T02:47:05.629Z,6.79
2023-02-18T02:48:05.622Z,6.78
2023-02-18T02:49:05.612Z,6.72
2023-02-18T02:50:05.597Z,6.74
2023-02-18T02:51:05.590Z,6.75
2023-02-18T02:52:05.605Z,6.74
2023-02-18T02:53:06.600Z,6.74
2023-02-18T02:54:05.556Z,6.74
2023-02-18T02:55:05.559Z,6.75
2023-02-18T02:56:05.712Z,6.67
2023-02-18T02:57:05.514Z,6.69
2023-02-18T02:58:05.673Z,6.72
2023-02-18T02:59:05.514Z,6.67
2023-02-18T03:00:05.494Z,6.67
2023-02-18T03:01:05.600Z,6.69
2023-02-18T03:02:05.462Z,6.62
2023-02-18T03:03:05.483Z,6.72
2023-02-18T03:04:05.480Z,6.69
2023-02-18T03:05:05.432Z,6.70
2023-02-18T03:06:05.680Z,6.74
2023-02-18T03:07:05.406Z,6.69
2023-02-18T03:08:05.446Z,6.75
2023-02-18T03:09:05.383Z,6.69
2023-02-18T03:10:05.393Z,6.74
2023-02-18T03:11:05.362Z,6.81
2023-02-18T03:12:05.381Z,6.82
2023-02-18T03:13:05.346Z,6.87
2023-02-18T03:14:05.460Z,6.87
2023-02-18T03:15:05.350Z,6.79
2023-02-18T03:16:05.410Z,6.85
2023-02-18T03:17:05.293Z,6.89
2023-02-18T03:18:05.290Z,6.85
2023-02-18T03:19:05.273Z,6.88
2023-02-18T03:20:05.282Z,6.87
2023-02-18T03:21:05.261Z,6.89
2023-02-18T03:22:05.301Z,6.85
2023-02-18T03:23:05.228Z,6.92
2023-02-18T03:24:05.285Z,6.84
2023-02-18T03:25:05.208Z,6.89
2023-02-18T03:26:05.253Z,6.93
2023-02-18T03:27:05.189Z,6.99
2023-02-18T03:28:05.279Z,6.96
2023-02-18T03:29:05.165Z,6.96
2023-02-18T03:30:05.262Z,6.97
2023-02-18T03:31:05.210Z,7.00
2023-02-18T03:32:05.216Z,6.97
2023-02-18T03:33:05.131Z,7.02
2023-02-18T03:34:05.129Z,6.99
2023-02-18T03:35:05.105Z,7.02
2023-02-18T03:36:05.107Z,6.97
2023-02-18T03:37:05.080Z,7.00
2023-02-18T03:38:05.063Z,7.10
2023-02-18T03:39:05.054Z,6.97
2023-02-18T03:40:05.095Z,7.06
2023-02-18T03:41:05.045Z,6.99
2023-02-18T03:42:05.043Z,7.06
2023-02-18T03:43:05.031Z,7.02
2023-02-18T03:44:04.999Z,7.06
2023-02-18T03:45:04.983Z,7.05
2023-02-18T03:46:05.104Z,7.05
2023-02-18T03:47:04.992Z,7.02
2023-02-18T03:48:04.995Z,7.03
2023-02-18T03:49:04.946Z,7.13
2023-02-18T03:50:04.943Z,7.10
2023-02-18T03:51:04.915Z,7.07
2023-02-18T03:52:04.961Z,7.11
2023-02-18T03:53:04.904Z,7.07
2023-02-18T03:54:04.912Z,7.14
2023-02-18T03:55:04.881Z,7.14
2023-02-18T03:56:04.901Z,7.13
2023-02-18T03:57:04.844Z,7.14
2023-02-18T03:58:04.911Z,7.29
2023-02-18T03:59:04.832Z,7.25
2023-02-18T04:00:04.831Z,7.25
2023-02-18T04:01:04.831Z,7.29
2023-02-18T04:02:04.799Z,7.23
2023-02-18T04:03:04.802Z,7.17
2023-02-18T04:04:04.927Z,7.14
2023-02-18T04:05:04.755Z,7.11
2023-02-18T04:06:04.761Z,7.20
2023-02-18T04:07:04.739Z,7.10
2023-02-18T04:08:04.740Z,7.18
2023-02-18T04:09:04.710Z,7.18
2023-02-18T04:10:04.739Z,7.23
2023-02-18T04:11:04.691Z,7.25
2023-02-18T04:12:04.689Z,7.28
2023-02-18T04:13:04.664Z,7.21
2023-02-18T04:14:04.652Z,7.28
2023-02-18T04:15:04.652Z,7.28
2023-02-18T04:16:04.663Z,7.39
2023-02-18T04:17:04.628Z,7.40
2023-02-18T04:18:04.634Z,7.38
2023-02-18T04:19:04.619Z,7.36
2023-02-18T04:20:04.602Z,7.36
2023-02-18T04:21:04.569Z,7.38
2023-02-18T04:22:04.575Z,7.35
2023-02-18T04:23:04.556Z,7.36
2023-02-18T04:24:04.551Z,7.36
2023-02-18T04:25:04.537Z,7.38
2023-02-18T04:26:04.525Z,7.36
2023-02-18T04:27:04.506Z,7.28
2023-02-18T04:28:04.533Z,7.25
2023-02-18T04:29:04.482Z,7.31
2023-02-18T04:30:04.522Z,7.25
2023-02-18T04:31:04.661Z,7.31
2023-02-18T04:32:04.515Z,7.29
2023-02-18T04:33:04.445Z,7.31
2023-02-18T04:34:04.514Z,7.28
2023-02-18T04:35:04.471Z,7.25
2023-02-18T04:36:04.407Z,7.28
2023-02-18T04:37:04.395Z,7.15
2023-02-18T04:38:04.393Z,7.10
2023-02-18T04:39:04.372Z,7.20
2023-02-18T04:40:04.417Z,7.13
2023-02-18T04:41:04.349Z,7.13
2023-02-18T04:42:04.342Z,7.20
2023-02-18T04:43:04.329Z,7.23
2023-02-18T04:44:04.321Z,7.14
2023-02-18T04:45:04.349Z,7.15
2023-02-18T04:46:04.419Z,7.03
2023-02-18T04:47:04.287Z,7.06
2023-02-18T04:48:04.275Z,7.06
2023-02-18T04:49:04.306Z,7.03
2023-02-18T04:50:04.251Z,6.99
2023-02-18T04:51:04.277Z,7.02
2023-02-18T04:52:04.266Z,7.02
2023-02-18T04:53:04.220Z,6.97
2023-02-18T04:54:04.208Z,6.99
2023-02-18T04:55:04.201Z,6.82
2023-02-18T04:56:04.184Z,6.84
2023-02-18T04:57:04.177Z,6.88
2023-02-18T04:58:04.227Z,6.87
2023-02-18T04:59:04.156Z,6.85
2023-02-18T05:00:04.140Z,6.77
2023-02-18T05:01:04.160Z,6.79
2023-02-18T05:02:04.121Z,6.78
2023-02-18T05:03:04.130Z,6.69
2023-02-18T05:04:04.217Z,6.77
2023-02-18T05:05:04.087Z,6.74
2023-02-18T05:06:04.083Z,6.77
2023-02-18T05:07:04.091Z,6.69
2023-02-18T05:08:04.049Z,6.67
2023-02-18T05:09:04.065Z,6.74
2023-02-18T05:10:04.062Z,6.70
2023-02-18T05:11:04.020Z,6.75
2023-02-18T05:12:04.010Z,6.78
2023-02-18T05:13:04.000Z,6.74
2023-02-18T05:14:03.990Z,6.67
2023-02-18T05:15:03.989Z,6.70
2023-02-18T05:16:04.081Z,6.66
2023-02-18T05:17:03.967Z,6.69
2023-02-18T05:18:03.949Z,6.67
2023-02-18T05:19:03.932Z,6.67
2023-02-18T05:20:03.928Z,6.70
2023-02-18T05:21:03.912Z,6.69
2023-02-18T05:22:03.913Z,6.75
2023-02-18T05:23:03.917Z,6.69
2023-02-18T05:24:03.900Z,6.75
2023-02-18T05:25:03.869Z,6.69
2023-02-18T05:26:03.859Z,6.66
2023-02-18T05:27:03.862Z,6.67
2023-02-18T05:28:03.925Z,6.70
2023-02-18T05:29:03.817Z,6.72
2023-02-18T05:30:03.849Z,6.70
2023-02-18T05:31:03.969Z,6.74
2023-02-18T05:32:03.814Z,6.66
2023-02-18T05:33:03.786Z,6.67
2023-02-18T05:34:03.796Z,6.67
2023-02-18T05:35:03.778Z,6.63
2023-02-18T05:36:03.744Z,6.67
2023-02-18T05:37:03.737Z,6.54
2023-02-18T05:38:03.767Z,6.69
2023-02-18T05:39:03.741Z,6.59
2023-02-18T05:40:03.893Z,6.56
2023-02-18T05:41:03.695Z,6.57
2023-02-18T05:42:03.692Z,6.57
2023-02-18T05:43:03.684Z,6.56
2023-02-18T05:44:03.660Z,6.52
2023-02-18T05:45:03.649Z,6.54
2023-02-18T05:46:03.706Z,6.54
2023-02-18T05:47:03.624Z,6.57
2023-02-18T05:48:03.611Z,6.57
2023-02-18T05:49:03.623Z,6.52
2023-02-18T05:50:03.626Z,6.46
2023-02-18T05:51:03.580Z,6.48
2023-02-18T05:52:03.599Z,6.52
2023-02-18T05:53:03.567Z,6.46
2023-02-18T05:54:03.549Z,6.48
2023-02-18T05:55:03.586Z,6.42
2023-02-18T05:56:03.520Z,6.48
2023-02-18T05:57:03.511Z,6.38
2023-02-18T05:58:03.573Z,6.49
2023-02-18T05:59:03.493Z,6.45
2023-02-18T06:00:03.480Z,6.51
2023-02-18T06:01:03.468Z,6.46
2023-02-18T06:02:03.455Z,6.44
2023-02-18T06:03:03.633Z,6.52
2023-02-18T06:04:03.482Z,6.42
2023-02-18T06:05:03.421Z,6.44
2023-02-18T06:06:03.492Z,6.42
2023-02-18T06:07:03.406Z,6.44
2023-02-18T06:08:03.385Z,6.45
2023-02-18T06:09:03.383Z,6.44
2023-02-18T06:10:03.413Z,6.51
2023-02-18T06:11:03.386Z,6.49
2023-02-18T06:12:03.366Z,6.49
2023-02-18T06:13:03.328Z,6.51
2023-02-18T06:14:03.333Z,6.46
2023-02-18T06:15:03.321Z,6.52
2023-02-18T06:16:03.400Z,6.57
2023-02-18T06:17:03.301Z,6.56
2023-02-18T06:18:03.278Z,6.51
2023-02-18T06:19:03.282Z,6.57
2023-02-18T06:20:03.441Z,6.54
2023-02-18T06:21:03.244Z,6.60
2023-02-18T06:22:03.263Z,6.51
2023-02-18T06:23:03.262Z,6.56
2023-02-18T06:24:03.229Z,6.49
2023-02-18T06:25:03.196Z,6.52
2023-02-18T06:26:03.192Z,6.64
2023-02-18T06:27:03.302Z,6.59
2023-02-18T06:28:03.201Z,6.57
2023-02-18T06:29:03.155Z,6.59
2023-02-18T06:30:03.285Z,6.62
2023-02-18T06:31:03.302Z,6.49
2023-02-18T06:32:03.241Z,6.63
2023-02-18T06:33:03.112Z,6.66
2023-02-18T06:34:03.127Z,6.70
2023-02-18T06:35:03.085Z,6.67
2023-02-18T06:36:03.069Z,6.77
2023-02-18T06:37:03.059Z,6.82
2023-02-18T06:38:03.053Z,6.79
2023-02-18T06:39:03.119Z,6.79
2023-02-18T06:40:03.076Z,6.87
2023-02-18T06:41:03.015Z,6.85
2023-02-18T06:42:03.128Z,6.89
2023-02-18T06:43:03.025Z,6.92
2023-02-18T06:44:02.981Z,6.95
2023-02-18T06:45:02.981Z,6.97
2023-02-18T06:46:02.988Z,6.99
2023-02-18T06:47:02.945Z,6.92
2023-02-18T06:48:02.938Z,6.97
2023-02-18T06:49:02.924Z,7.05
2023-02-18T06:50:02.927Z,7.07
2023-02-18T06:51:02.901Z,7.03
2023-02-18T06:52:02.922Z,7.07
2023-02-18T06:53:02.929Z,7.10
2023-02-18T06:54:02.878Z,7.10
2023-02-18T06:55:02.872Z,7.11
2023-02-18T06:56:02.845Z,7.17
2023-02-18T06:57:02.868Z,7.13
2023-02-18T06:58:02.857Z,7.25
2023-02-18T06:59:02.846Z,7.24
2023-02-18T07:00:02.802Z,7.31
2023-02-18T07:01:02.839Z,7.28
2023-02-18T07:02:02.789Z,7.28
2023-02-18T07:03:02.799Z,7.28
2023-02-18T07:04:02.816Z,7.32
2023-02-18T07:05:02.748Z,7.39
2023-02-18T07:06:02.762Z,7.39
2023-02-18T07:07:02.725Z,7.35
2023-02-18T07:08:02.706Z,7.39
2023-02-18T07:09:02.701Z,7.48
2023-02-18T07:10:02.750Z,7.50
2023-02-18T07:11:02.713Z,7.43
2023-02-18T07:12:02.676Z,7.48
2023-02-18T07:13:02.692Z,7.39
2023-02-18T07:14:02.645Z,7.40
2023-02-18T07:15:02.662Z,7.47
2023-02-18T07:16:02.719Z,7.56
2023-02-18T07:17:02.615Z,7.54
2023-02-18T07:18:02.603Z,7.51
2023-02-18T07:19:02.591Z,7.63
2023-02-18T07:20:02.581Z,7.57
2023-02-18T07:21:02.602Z,7.66
2023-02-18T07:22:02.619Z,7.60
2023-02-18T07:23:02.552Z,7.67
2023-02-18T07:24:02.537Z,7.66
2023-02-18T07:25:02.534Z,7.67
2023-02-18T07:26:02.530Z,7.67
2023-02-18T07:27:02.494Z,7.70
2023-02-18T07:28:02.518Z,7.67
2023-02-18T07:29:02.471Z,7.75
2023-02-18T07:30:02.518Z,7.77
2023-02-18T07:31:02.510Z,7.76
2023-02-18T07:32:02.491Z,7.76
2023-02-18T07:33:04.039Z,7.80
2023-02-18T07:34:02.451Z,7.76
2023-02-18T07:35:02.415Z,7.83
2023-02-18T07:36:02.392Z,7.88
2023-02-18T07:37:02.392Z,7.94
2023-02-18T07:38:02.368Z,7.93
2023-02-18T07:39:02.363Z,7.93
2023-02-18T07:40:02.399Z,7.93
2023-02-18T07:41:02.343Z,7.94
2023-02-18T07:42:02.340Z,8.01
2023-02-18T07:43:02.317Z,8.00
2023-02-18T07:44:02.312Z,7.97
2023-02-18T07:45:02.301Z,7.90
2023-02-18T07:46:02.393Z,7.95
2023-02-18T07:47:02.307Z,8.01
2023-02-18T07:48:02.265Z,8.10
2023-02-18T07:49:02.291Z,8.06
2023-02-18T07:50:02.247Z,8.12
2023-02-18T07:51:02.246Z,8.12
2023-02-18T07:52:03.883Z,8.15
2023-02-18T07:53:02.221Z,8.16
2023-02-18T07:54:02.201Z,8.26
2023-02-18T07:55:02.209Z,8.27
2023-02-18T07:56:02.191Z,8.33
2023-02-18T07:57:02.162Z,8.41
2023-02-18T07:58:02.347Z,8.38
2023-02-18T07:59:02.141Z,8.38
2023-02-18T08:00:02.194Z,8.48
2023-02-18T08:01:02.124Z,8.53
2023-02-18T08:02:02.150Z,8.55
2023-02-18T08:03:02.125Z,8.52
2023-02-18T08:04:02.170Z,8.64
2023-02-18T08:05:02.079Z,8.61
2023-02-18T08:06:02.102Z,8.66
2023-02-18T08:07:02.056Z,8.74
2023-02-18T08:08:02.046Z,8.71
2023-02-18T08:09:02.031Z,8.64
2023-02-18T08:10:02.076Z,8.79
2023-02-18T08:11:07.109Z,8.76
2023-02-18T08:12:02.996Z,8.81
2023-02-18T08:13:01.996Z,8.88
2023-02-18T08:14:01.981Z,8.88
2023-02-18T08:15:01.966Z,8.88
2023-02-18T08:16:02.002Z,8.85
2023-02-18T08:17:02.001Z,8.92
2023-02-18T08:18:01.950Z,8.89
2023-02-18T08:19:01.947Z,8.97
2023-02-18T08:20:01.922Z,9.00
2023-02-18T08:21:01.904Z,9.10
2023-02-18T08:22:01.940Z,9.14
2023-02-18T08:23:01.875Z,9.19
2023-02-18T08:24:01.954Z,9.21
2023-02-18T08:25:01.888Z,9.21
2023-02-18T08:26:01.858Z,9.19
2023-02-18T08:27:01.925Z,9.08
2023-02-18T08:28:01.886Z,9.18
2023-02-18T08:29:01.824Z,9.18
2023-02-18T08:30:01.841Z,9.31
2023-02-18T08:31:01.969Z,9.34
2023-02-18T08:32:01.841Z,9.34
2023-02-18T08:33:01.766Z,9.36
2023-02-18T08:34:01.797Z,9.37
2023-02-18T08:35:01.769Z,9.37
2023-02-18T08:36:01.738Z,9.56
2023-02-18T08:37:01.733Z,9.51
2023-02-18T08:38:01.712Z,9.56
2023-02-18T08:39:01.704Z,9.54
2023-02-18T08:40:01.724Z,9.47
2023-02-18T08:41:01.685Z,9.59
2023-02-18T08:42:01.677Z,9.48
2023-02-18T08:43:01.661Z,9.66
2023-02-18T08:44:01.642Z,9.61
2023-02-18T08:45:01.634Z,9.56
2023-02-18T08:46:01.717Z,9.59
2023-02-18T08:47:01.626Z,9.62
2023-02-18T08:48:17.202Z,9.66
2023-02-18T08:49:02.614Z,9.72
2023-02-18T08:50:01.580Z,9.77
2023-02-18T08:51:01.605Z,9.68
2023-02-18T08:52:01.616Z,9.68
2023-02-18T08:53:01.553Z,9.76
2023-02-18T08:54:01.568Z,9.74
2023-02-18T08:55:01.523Z,9.83
2023-02-18T08:56:01.518Z,9.86
2023-02-18T08:57:01.503Z,9.89
2023-02-18T08:58:01.532Z,9.87
2023-02-18T08:59:01.505Z,9.83
2023-02-18T09:00:01.478Z,9.82
2023-02-18T09:01:01.518Z,9.76
2023-02-18T09:02:02.110Z,9.86
2023-02-18T09:03:01.446Z,9.72
2023-02-18T09:04:01.578Z,9.73
2023-02-18T09:05:01.419Z,9.74
2023-02-18T09:06:01.521Z,9.72
2023-02-18T09:07:01.408Z,9.58
2023-02-18T09:08:01.380Z,9.66
2023-02-18T09:09:01.362Z,9.66
2023-02-18T09:10:01.365Z,9.61
2023-02-18T09:11:01.367Z,9.66
2023-02-18T09:12:01.335Z,9.68
2023-02-18T09:13:01.317Z,9.69
2023-02-18T09:14:01.315Z,9.74
2023-02-18T09:15:01.303Z,9.72
2023-02-18T09:16:01.375Z,9.72
2023-02-18T09:17:01.278Z,9.72
2023-02-18T09:18:01.266Z,9.83
2023-02-18T09:19:01.252Z,9.94
2023-02-18T09:20:01.237Z,9.98
2023-02-18T09:21:01.244Z,10.01
2023-02-18T09:22:01.254Z,10.04
2023-02-18T09:23:01.226Z,10.04
2023-02-18T09:24:01.210Z,10.13
2023-02-18T09:25:01.186Z,10.25
2023-02-18T09:26:01.194Z,10.19
2023-02-18T09:27:01.159Z,10.33
2023-02-18T09:28:01.298Z,10.37
2023-02-18T09:29:01.139Z,10.34
2023-02-18T09:30:01.203Z,10.41
2023-02-18T09:31:01.161Z,10.48
2023-02-18T09:32:01.186Z,10.49
2023-02-18T09:33:01.087Z,10.57
2023-02-18T09:34:01.185Z,10.60
2023-02-18T09:35:01.076Z,10.68
2023-02-18T09:36:01.060Z,10.75
2023-02-18T09:37:01.057Z,10.76
2023-02-18T09:38:01.036Z,10.86
2023-02-18T09:39:01.061Z,10.93
2023-02-18T09:40:01.054Z,10.90
2023-02-18T09:41:01.098Z,10.96
2023-02-18T09:42:00.987Z,11.11
2023-02-18T09:43:00.979Z,11.10
2023-02-18T09:44:00.962Z,11.17
2023-02-18T09:45:00.966Z,11.26
2023-02-18T09:46:00.995Z,11.19
2023-02-18T09:47:00.957Z,11.33
2023-02-18T09:48:00.925Z,11.37
2023-02-18T09:49:00.925Z,11.40
2023-02-18T09:50:00.901Z,11.43
2023-02-18T09:51:00.898Z,11.41
2023-02-18T09:52:00.907Z,11.45
2023-02-18T09:53:00.878Z,11.47
2023-02-18T09:54:00.854Z,11.63
2023-02-18T09:55:00.875Z,11.57
2023-02-18T09:56:00.826Z,11.62
2023-02-18T09:57:00.818Z,11.68
2023-02-18T09:58:00.829Z,11.78
2023-02-18T09:59:00.833Z,11.83
2023-02-18T10:00:00.793Z,11.77
2023-02-18T10:01:00.776Z,11.83
2023-02-18T10:02:02.455Z,11.81
2023-02-18T10:03:00.775Z,11.78
2023-02-18T10:04:00.785Z,11.83
2023-02-18T10:05:00.750Z,11.87
2023-02-18T10:06:00.727Z,11.81
2023-02-18T10:07:00.713Z,11.91
2023-02-18T10:08:00.714Z,11.97
2023-02-18T10:09:00.713Z,12.03
2023-02-18T10:10:00.754Z,12.02
2023-02-18T10:11:00.733Z,12.07
2023-02-18T10:12:00.677Z,12.00
2023-02-18T10:13:00.639Z,12.07
2023-02-18T10:14:00.647Z,12.10
2023-02-18T10:15:00.632Z,12.12
2023-02-18T10:16:00.753Z,12.22
2023-02-18T10:17:00.603Z,12.28
2023-02-18T10:18:00.583Z,12.28
2023-02-18T10:19:00.575Z,12.24
2023-02-18T10:20:01.494Z,12.31
2023-02-18T10:21:00.555Z,12.45
2023-02-18T10:22:00.648Z,12.46
2023-02-18T10:23:00.526Z,12.60
2023-02-18T10:24:00.544Z,12.61
2023-02-18T10:25:00.522Z,12.85
2023-02-18T10:26:00.496Z,12.91
2023-02-18T10:27:00.510Z,13.00
2023-02-18T10:28:00.580Z,13.12
2023-02-18T10:29:00.461Z,13.20
2023-02-18T10:30:00.494Z,13.37
2023-02-18T10:31:00.570Z,13.31
2023-02-18T10:32:00.591Z,13.30
2023-02-18T10:33:00.422Z,13.42
2023-02-18T10:34:00.457Z,13.49
2023-02-18T10:35:00.570Z,13.52
2023-02-18T10:36:00.385Z,13.53
2023-02-18T10:37:00.367Z,13.57
2023-02-18T10:38:00.365Z,13.60
2023-02-18T10:39:00.366Z,13.60
2023-02-18T10:40:00.369Z,13.65
2023-02-18T10:41:00.390Z,13.70
2023-02-18T10:42:00.320Z,13.81
2023-02-18T10:43:00.335Z,13.83
2023-02-18T10:44:00.294Z,13.83
2023-02-18T10:45:00.351Z,13.79
2023-02-18T10:46:00.319Z,13.85
2023-02-18T10:47:00.259Z,13.85
2023-02-18T10:48:00.252Z,13.89
2023-02-18T10:49:00.389Z,13.86
2023-02-18T10:50:00.241Z,13.92
2023-02-18T10:51:00.236Z,13.83
2023-02-18T10:52:00.229Z,13.87
2023-02-18T10:53:00.214Z,13.87
2023-02-18T10:54:00.182Z,13.86
2023-02-18T10:55:00.195Z,13.87
2023-02-18T10:56:00.377Z,13.90
2023-02-18T10:57:00.171Z,13.93
2023-02-18T10:58:00.168Z,13.92
2023-02-18T10:59:00.227Z,13.86
2023-02-18T11:00:00.135Z,13.85
2023-02-18T11:01:00.140Z,13.92
2023-02-18T11:02:00.270Z,13.83
2023-02-18T11:03:00.120Z,13.86
2023-02-18T11:04:00.113Z,13.87
2023-02-18T11:05:00.203Z,13.86
2023-02-18T11:06:00.047Z,13.87
2023-02-18T11:07:00.071Z,13.87
2023-02-18T11:08:00.037Z,13.81
2023-02-18T11:09:00.107Z,13.83
2023-02-18T11:10:00.023Z,13.87
2023-02-18T11:10:59.991Z,13.79
2023-02-18T11:12:07.856Z,13.81
2023-02-18T11:13:00.990Z,13.77
2023-02-18T11:13:59.972Z,13.85
2023-02-18T11:14:59.972Z,13.75
2023-02-18T11:16:00.176Z,13.72
2023-02-18T11:16:59.917Z,13.78
2023-02-18T11:17:59.969Z,13.79
2023-02-18T11:18:59.895Z,13.74
2023-02-18T11:19:59.978Z,13.81
2023-02-18T11:20:59.871Z,13.72
2023-02-18T11:21:59.977Z,13.78
2023-02-18T11:22:59.855Z,13.77
2023-02-18T11:23:59.913Z,13.68
2023-02-18T11:24:59.829Z,13.75
2023-02-18T11:25:59.822Z,13.75
2023-02-18T11:26:59.826Z,13.87
2023-02-18T11:27:59.825Z,13.90
2023-02-18T11:28:59.790Z,13.79
2023-02-18T11:29:59.841Z,13.83
2023-02-18T11:30:59.971Z,13.90
2023-02-18T11:31:59.887Z,13.87
2023-02-18T11:32:59.740Z,13.89
2023-02-18T11:33:59.766Z,13.85
2023-02-18T11:34:59.721Z,13.81
2023-02-18T11:35:59.712Z,13.96
2023-02-18T11:36:59.764Z,13.89
2023-02-18T11:37:59.690Z,13.90
2023-02-18T11:38:59.680Z,13.92
2023-02-18T11:39:59.754Z,14.07
2023-02-18T11:40:59.651Z,14.04
2023-02-18T11:41:59.644Z,14.08
2023-02-18T11:42:59.639Z,14.12
2023-02-18T11:43:59.621Z,14.10
2023-02-18T11:44:59.678Z,14.08
2023-02-18T11:45:59.636Z,14.04
2023-02-18T11:46:59.798Z,14.04
2023-02-18T11:47:59.571Z,14.05
2023-02-18T11:48:59.577Z,14.05
2023-02-18T11:49:59.557Z,14.03
2023-02-18T11:50:59.560Z,14.05
2023-02-18T11:51:59.554Z,13.99
2023-02-18T11:52:59.524Z,13.87
2023-02-18T11:53:59.501Z,13.85
2023-02-18T11:54:59.503Z,13.83
2023-02-18T11:55:59.552Z,13.67
2023-02-18T11:56:59.492Z,13.62
2023-02-18T11:57:59.556Z,13.50
2023-02-18T11:58:59.461Z,13.39
2023-02-18T11:59:59.451Z,13.38
2023-02-18T12:00:59.432Z,13.16
2023-02-18T12:02:01.615Z,13.11
2023-02-18T12:02:59.454Z,13.03
2023-02-18T12:03:59.489Z,12.93
2023-02-18T12:04:59.438Z,12.83
2023-02-18T12:05:59.378Z,12.85
2023-02-18T12:06:59.365Z,12.86
2023-02-18T12:07:59.355Z,12.78
2023-02-18T12:08:59.339Z,12.73
2023-02-18T12:09:59.479Z,12.64
2023-02-18T12:10:59.324Z,12.62
2023-02-18T12:12:00.265Z,12.55
2023-02-18T12:12:59.302Z,12.60
2023-02-18T12:13:59.306Z,12.57
2023-02-18T12:14:59.283Z,12.50
2023-02-18T12:15:59.326Z,12.46
2023-02-18T12:16:59.266Z,12.28
2023-02-18T12:17:59.242Z,12.28
2023-02-18T12:18:59.290Z,12.27
2023-02-18T12:19:59.286Z,12.17
2023-02-18T12:20:59.213Z,12.09
2023-02-18T12:21:59.260Z,12.10
2023-02-18T12:22:59.186Z,12.07
2023-02-18T12:23:59.179Z,12.06
2023-02-18T12:24:59.164Z,12.09
2023-02-18T12:25:59.157Z,12.07
2023-02-18T12:26:59.144Z,12.09
2023-02-18T12:27:59.280Z,12.02
2023-02-18T12:28:59.121Z,12.02
2023-02-18T12:29:59.177Z,11.91
2023-02-18T12:30:59.142Z,11.88
2023-02-18T12:31:59.104Z,11.78
2023-02-18T12:32:59.089Z,11.70
2023-02-18T12:33:59.119Z,11.83
2023-02-18T12:34:59.076Z,11.77
2023-02-18T12:35:59.041Z,11.66
2023-02-18T12:36:59.030Z,11.68
2023-02-18T12:37:59.027Z,11.65
2023-02-18T12:38:59.030Z,11.62
2023-02-18T12:39:59.026Z,11.70
2023-02-18T12:40:59.023Z,11.68
2023-02-18T12:41:59.005Z,11.60
2023-02-18T12:42:58.986Z,11.69
2023-02-18T12:43:58.943Z,11.57
2023-02-18T12:44:58.966Z,11.65
2023-02-18T12:45:59.121Z,11.68
2023-02-18T12:46:58.914Z,11.72
2023-02-18T12:47:58.952Z,11.65
2023-02-18T12:48:58.886Z,11.66
2023-02-18T12:49:58.892Z,11.75
2023-02-18T12:50:58.891Z,11.75
2023-02-18T12:51:58.926Z,11.66
2023-02-18T12:52:58.846Z,11.68
2023-02-18T12:53:58.834Z,11.68
2023-02-18T12:54:58.822Z,11.68
2023-02-18T12:55:58.814Z,11.66
2023-02-18T12:56:58.804Z,11.68
2023-02-18T12:57:58.902Z,11.60
2023-02-18T12:58:58.780Z,11.57
2023-02-18T12:59:58.780Z,11.52
2023-02-18T13:00:58.815Z,11.55
2023-02-18T13:01:58.768Z,11.54
2023-02-18T13:02:58.742Z,11.52
2023-02-18T13:03:58.856Z,11.55
2023-02-18T13:04:58.711Z,11.52
2023-02-18T13:05:58.710Z,11.57
2023-02-18T13:06:58.717Z,11.54
2023-02-18T13:07:58.693Z,11.62
2023-02-18T13:08:58.667Z,11.60
2023-02-18T13:09:58.671Z,11.59